createdAt,value
2018-12-07T00:00:31.604Z,17.20
2018-12-07T00:02:59.176Z,16.37
2018-12-07T00:05:26.746Z,16.50
2018-12-07T00:07:54.283Z,16.33
2018-12-07T00:10:21.766Z,16.33
2018-12-07T00:12:49.260Z,15.87
2018-12-07T00:15:16.742Z,15.40
2018-12-07T00:17:44.228Z,16.80
2018-12-07T00:20:11.729Z,18.60
2018-12-07T00:22:39.187Z,14.73
2018-12-07T00:25:06.716Z,15.17
2018-12-07T00:27:34.197Z,14.53
2018-12-07T00:30:01.676Z,14.93
2018-12-07T00:32:29.145Z,14.43
2018-12-07T00:34:56.639Z,13.70
2018-12-07T00:37:24.122Z,14.40
2018-12-07T00:39:51.663Z,13.23
2018-12-07T00:42:19.155Z,14.20
2018-12-07T00:44:48.336Z,13.80
2018-12-07T00:47:15.991Z,13.27
2018-12-07T00:49:43.467Z,13.47
2018-12-07T00:52:10.940Z,13.00
2018-12-07T00:54:38.421Z,12.40
2018-12-07T00:57:05.967Z,13.37
2018-12-07T00:59:33.445Z,13.03
2018-12-07T01:02:01.036Z,12.37
2018-12-07T01:04:28.493Z,11.90
2018-12-07T01:06:56.049Z,13.53
2018-12-07T01:09:23.544Z,12.10
2018-12-07T01:11:51.008Z,13.53
2018-12-07T01:14:18.495Z,13.07
2018-12-07T01:16:46.049Z,11.67
2018-12-07T01:19:13.564Z,10.60
2018-12-07T01:21:41.012Z,12.00
2018-12-07T01:24:08.483Z,12.40
2018-12-07T01:26:36.103Z,10.93
2018-12-07T01:29:03.579Z,11.43
2018-12-07T01:31:31.073Z,10.90
2018-12-07T01:33:58.542Z,11.30
2018-12-07T01:36:26.053Z,11.30
2018-12-07T01:38:53.493Z,12.53
2018-12-07T01:41:20.976Z,10.93
2018-12-07T01:43:48.463Z,10.63
2018-12-07T01:46:15.935Z,11.53
2018-12-07T01:48:43.510Z,10.90
2018-12-07T01:51:10.986Z,10.53
2018-12-07T01:53:38.508Z,11.53
2018-12-07T01:56:05.997Z,11.83
2018-12-07T01:58:33.451Z,11.10
2018-12-07T02:01:04.879Z,11.40
2018-12-07T02:03:32.365Z,10.80
2018-12-07T02:05:59.816Z,10.93
2018-12-07T02:08:27.266Z,10.47
2018-12-07T02:10:54.845Z,10.87
2018-12-07T02:13:22.378Z,11.40
2018-12-07T02:15:49.841Z,11.10
2018-12-07T02:18:17.347Z,11.27
2018-12-07T02:20:44.805Z,10.43
2018-12-07T02:23:12.273Z,11.30
2018-12-07T02:25:39.735Z,10.60
2018-12-07T02:28:07.203Z,11.23
2018-12-07T02:30:34.799Z,10.47
2018-12-07T02:33:02.359Z,10.23
2018-12-07T02:35:29.833Z,9.37
2018-12-07T02:37:57.310Z,10.70
2018-12-07T02:40:24.850Z,10.20
2018-12-07T02:42:52.307Z,10.60
2018-12-07T02:45:19.797Z,10.37
2018-12-07T02:47:47.340Z,11.80
2018-12-07T02:50:14.923Z,11.13
2018-12-07T02:52:42.401Z,10.23
2018-12-07T02:55:09.852Z,10.10
2018-12-07T02:57:38.138Z,11.57
2018-12-07T03:00:06.795Z,11.13
2018-12-07T03:02:34.281Z,11.50
2018-12-07T03:05:01.773Z,12.10
2018-12-07T03:07:29.258Z,11.90
2018-12-07T03:09:56.710Z,12.07
2018-12-07T03:12:24.204Z,12.40
2018-12-07T03:14:51.678Z,12.70
2018-12-07T03:17:19.180Z,12.67
2018-12-07T03:19:46.638Z,12.30
2018-12-07T03:22:14.187Z,13.47
2018-12-07T03:24:41.652Z,13.47
2018-12-07T03:27:09.128Z,13.70
2018-12-07T03:29:36.602Z,14.00
2018-12-07T03:32:04.075Z,13.27
2018-12-07T03:34:31.736Z,13.23
2018-12-07T03:36:59.212Z,13.60
2018-12-07T03:39:26.699Z,14.60
2018-12-07T03:41:54.196Z,13.73
2018-12-07T03:44:21.638Z,14.47
2018-12-07T03:46:49.114Z,15.17
2018-12-07T03:49:16.596Z,15.07
2018-12-07T03:51:44.071Z,15.43
2018-12-07T03:54:11.553Z,14.67
2018-12-07T03:56:39.010Z,16.50
2018-12-07T03:59:06.494Z,15.13
2018-12-07T04:01:33.939Z,15.57
2018-12-07T04:04:01.415Z,15.17
2018-12-07T04:06:28.903Z,15.73
2018-12-07T04:08:56.392Z,14.90
2018-12-07T04:11:23.904Z,15.33
2018-12-07T04:13:51.385Z,15.87
2018-12-07T04:16:18.872Z,15.43
2018-12-07T04:18:46.489Z,15.47
2018-12-07T04:21:13.933Z,14.07
2018-12-07T04:23:41.406Z,14.10
2018-12-07T04:26:08.886Z,15.63
2018-12-07T04:28:36.386Z,14.57
2018-12-07T04:31:04.064Z,13.87
2018-12-07T04:33:31.630Z,15.17
2018-12-07T04:36:07.155Z,15.87
2018-12-07T04:38:28.571Z,14.67
2018-12-07T04:40:56.078Z,15.40
2018-12-07T04:43:23.561Z,15.07
2018-12-07T04:45:51.054Z,16.10
2018-12-07T04:48:18.642Z,15.87
2018-12-07T04:50:46.097Z,15.47
2018-12-07T04:53:13.593Z,16.00
2018-12-07T04:55:41.125Z,14.80
2018-12-07T04:58:08.627Z,15.50
2018-12-07T05:00:36.536Z,16.73
2018-12-07T05:03:04.589Z,16.60
2018-12-07T05:05:32.131Z,17.80
2018-12-07T05:07:59.568Z,16.33
2018-12-07T05:10:27.060Z,17.80
2018-12-07T05:12:54.558Z,16.87
2018-12-07T05:15:22.047Z,16.63
2018-12-07T05:17:49.517Z,16.50
2018-12-07T05:20:17.024Z,16.97
2018-12-07T05:22:44.530Z,16.77
2018-12-07T05:25:11.990Z,16.30
2018-12-07T05:27:39.525Z,17.70
2018-12-07T05:30:07.281Z,16.33
2018-12-07T05:32:34.746Z,16.77
2018-12-07T05:35:02.223Z,16.97
2018-12-07T05:37:29.721Z,16.53
2018-12-07T05:39:57.198Z,16.73
2018-12-07T05:42:24.671Z,16.50
2018-12-07T05:44:52.122Z,17.47
2018-12-07T05:47:19.602Z,16.80
2018-12-07T05:49:47.085Z,17.40
2018-12-07T05:52:14.560Z,15.43
2018-12-07T05:54:42.037Z,15.53
2018-12-07T05:57:09.517Z,14.33
2018-12-07T05:59:36.984Z,15.83
2018-12-07T06:02:04.523Z,15.80
2018-12-07T06:04:32.011Z,14.80
2018-12-07T06:06:59.458Z,15.00
2018-12-07T06:09:26.949Z,15.47
2018-12-07T06:11:55.149Z,15.37
2018-12-07T06:14:22.916Z,14.37
2018-12-07T06:16:50.379Z,13.77
2018-12-07T06:19:17.873Z,15.77
2018-12-07T06:21:45.360Z,14.23
2018-12-07T06:24:12.850Z,15.13
2018-12-07T06:26:40.345Z,15.07
2018-12-07T06:29:07.833Z,14.83
2018-12-07T06:31:35.320Z,14.53
2018-12-07T06:34:02.819Z,15.10
2018-12-07T06:36:30.304Z,14.27
2018-12-07T06:38:57.831Z,14.20
2018-12-07T06:41:25.342Z,16.20
2018-12-07T06:43:52.850Z,15.87
2018-12-07T06:46:20.358Z,14.70
2018-12-07T06:49:08.880Z,15.20
2018-12-07T06:51:36.408Z,16.47
2018-12-07T06:54:03.927Z,14.80
2018-12-07T06:56:31.488Z,17.40
2018-12-07T06:58:58.986Z,15.90
2018-12-07T07:01:26.447Z,14.23
2018-12-07T07:03:53.929Z,16.00
2018-12-07T07:06:21.460Z,14.50
2018-12-07T07:08:48.944Z,15.03
2018-12-07T07:11:16.483Z,15.20
2018-12-07T07:13:43.967Z,14.27
2018-12-07T07:16:11.489Z,14.57
2018-12-07T07:18:39.073Z,14.37
2018-12-07T07:21:06.580Z,15.73
2018-12-07T07:23:34.743Z,14.93
2018-12-07T07:26:02.243Z,15.70
2018-12-07T07:28:29.707Z,13.50
2018-12-07T07:30:57.191Z,14.40
2018-12-07T07:33:24.671Z,14.57
2018-12-07T07:35:52.180Z,13.67
2018-12-07T07:38:19.717Z,13.53
2018-12-07T07:40:47.263Z,13.90
2018-12-07T07:43:14.745Z,12.97
2018-12-07T07:45:42.266Z,13.20
2018-12-07T07:48:09.810Z,13.73
2018-12-07T07:50:37.355Z,14.40
2018-12-07T07:53:04.851Z,12.53
2018-12-07T07:55:32.344Z,12.90
2018-12-07T07:57:59.810Z,12.63
2018-12-07T08:00:27.322Z,13.43
2018-12-07T08:02:54.830Z,12.77
2018-12-07T08:05:22.416Z,12.07
2018-12-07T08:07:49.933Z,12.87
2018-12-07T08:10:17.385Z,13.10
2018-12-07T08:12:44.852Z,12.53
2018-12-07T08:15:12.358Z,12.40
2018-12-07T08:17:39.941Z,11.23
2018-12-07T08:20:07.417Z,11.23
2018-12-07T08:22:35.005Z,11.33
2018-12-07T08:25:02.513Z,14.00
2018-12-07T08:27:30.041Z,12.00
2018-12-07T08:29:57.521Z,12.10
2018-12-07T08:32:25.177Z,11.67
2018-12-07T08:34:52.745Z,11.00
2018-12-07T08:37:20.296Z,12.30
2018-12-07T08:39:47.896Z,12.30
2018-12-07T08:42:15.432Z,10.13
2018-12-07T08:44:42.906Z,10.93
2018-12-07T08:47:10.404Z,11.00
2018-12-07T08:49:43.534Z,11.50
2018-12-07T08:52:11.009Z,10.87
2018-12-07T08:54:38.570Z,10.13
2018-12-07T08:57:06.173Z,10.77
2018-12-07T08:59:33.742Z,10.67
2018-12-07T09:02:01.238Z,9.40
2018-12-07T09:04:28.718Z,8.40
2018-12-07T09:06:56.304Z,8.03
2018-12-07T09:09:23.806Z,8.57
2018-12-07T09:11:51.308Z,8.00
2018-12-07T09:14:18.787Z,7.47
2018-12-07T09:16:46.352Z,7.63
2018-12-07T09:19:13.829Z,8.57
2018-12-07T09:21:41.323Z,8.17
2018-12-07T09:24:08.850Z,9.53
2018-12-07T09:26:36.314Z,9.33
2018-12-07T09:29:03.846Z,8.80
2018-12-07T09:31:31.308Z,6.43
2018-12-07T09:33:58.789Z,6.80
2018-12-07T09:36:26.358Z,7.43
2018-12-07T09:38:53.844Z,5.87
2018-12-07T09:41:21.308Z,6.90
2018-12-07T09:43:48.844Z,5.67
2018-12-07T09:46:16.307Z,8.80
2018-12-07T09:48:43.788Z,5.97
2018-12-07T09:51:11.244Z,6.37
2018-12-07T09:53:38.766Z,5.77
2018-12-07T09:56:06.266Z,7.13
2018-12-07T09:58:33.833Z,7.73
2018-12-07T10:01:01.337Z,6.50
2018-12-07T10:03:28.824Z,5.07
2018-12-07T10:05:56.347Z,5.70
2018-12-07T10:08:23.832Z,4.83
2018-12-07T10:10:51.316Z,5.50
2018-12-07T10:13:18.851Z,4.13
2018-12-07T10:15:46.324Z,4.33
2018-12-07T10:18:13.832Z,4.47
2018-12-07T10:20:41.320Z,3.97
2018-12-07T10:23:08.824Z,4.53
2018-12-07T10:25:36.314Z,4.17
2018-12-07T10:28:03.827Z,3.20
2018-12-07T10:30:31.322Z,5.60
2018-12-07T10:32:58.857Z,4.67
2018-12-07T10:35:26.424Z,4.30
2018-12-07T10:37:53.916Z,3.43
2018-12-07T10:40:21.448Z,5.17
2018-12-07T10:42:48.987Z,4.13
2018-12-07T10:45:16.471Z,3.80
2018-12-07T10:47:50.102Z,4.93
2018-12-07T10:50:13.957Z,2.80
2018-12-07T10:52:41.525Z,3.37
2018-12-07T10:55:09.041Z,3.67
2018-12-07T10:57:36.506Z,3.17
2018-12-07T11:00:08.223Z,3.30
2018-12-07T11:02:41.225Z,2.97
2018-12-07T11:05:14.275Z,3.13
2018-12-07T11:07:47.484Z,2.77
2018-12-07T11:10:20.740Z,2.90
2018-12-07T11:12:53.973Z,2.93
2018-12-07T11:15:26.993Z,3.20
2018-12-07T11:25:12.202Z,2.23
2018-12-07T11:27:45.353Z,2.33
2018-12-07T11:30:18.594Z,3.00
2018-12-07T11:32:51.888Z,2.90
2018-12-07T11:35:21.315Z,2.50
2018-12-07T11:37:48.864Z,2.50
2018-12-07T11:40:16.392Z,3.20
2018-12-07T11:42:43.871Z,3.60
2018-12-07T11:45:11.467Z,2.90
2018-12-07T11:47:39.012Z,2.70
2018-12-07T11:50:08.102Z,3.33
2018-12-07T11:52:35.618Z,2.80
2018-12-07T11:55:03.630Z,2.03
2018-12-07T11:57:31.156Z,2.30
2018-12-07T11:59:58.650Z,2.33
2018-12-07T12:02:26.639Z,1.93
2018-12-07T12:04:54.283Z,2.47
2018-12-07T12:07:21.803Z,2.07
2018-12-07T12:09:49.321Z,2.63
2018-12-07T12:12:16.814Z,2.40
2018-12-07T12:14:44.316Z,2.50
2018-12-07T12:17:11.835Z,1.73
2018-12-07T12:19:39.325Z,2.10
2018-12-07T12:22:07.921Z,2.83
2018-12-07T12:24:35.637Z,2.43
2018-12-07T12:27:03.135Z,2.97
2018-12-07T12:29:30.601Z,2.43
2018-12-07T12:31:58.094Z,2.50
2018-12-07T12:34:25.577Z,2.97
2018-12-07T12:36:53.123Z,4.03
2018-12-07T12:39:20.607Z,3.03
2018-12-07T12:58:35.081Z,8.27
2018-12-07T13:01:02.565Z,2.77
2018-12-07T13:03:30.103Z,3.13
2018-12-07T13:05:57.671Z,3.73
2018-12-07T13:08:25.178Z,4.07
2018-12-07T13:10:52.689Z,3.80
2018-12-07T13:13:20.163Z,4.23
2018-12-07T13:15:47.661Z,4.00
2018-12-07T13:18:15.169Z,3.37
2018-12-07T13:20:42.647Z,3.87
2018-12-07T13:23:10.139Z,3.30
2018-12-07T13:25:37.612Z,4.33
2018-12-07T13:28:05.132Z,4.67
2018-12-07T13:30:32.706Z,5.57
2018-12-07T13:33:00.225Z,5.33
2018-12-07T13:35:27.685Z,2.83
2018-12-07T13:37:55.257Z,3.33
2018-12-07T13:40:22.862Z,4.50
2018-12-07T13:42:50.558Z,3.97
2018-12-07T13:45:18.284Z,4.43
2018-12-07T13:47:46.871Z,3.50
2018-12-07T13:50:20.234Z,4.17
2018-12-07T13:52:47.842Z,4.93
2018-12-07T13:55:15.666Z,3.67
2018-12-07T13:57:43.370Z,4.13
2018-12-07T14:00:11.833Z,3.63
2018-12-07T14:02:39.661Z,5.83
2018-12-07T14:05:10.991Z,4.37
2018-12-07T14:07:38.816Z,3.57
2018-12-07T14:10:06.535Z,3.33
2018-12-07T14:12:34.187Z,4.07
2018-12-07T14:15:01.784Z,4.90
2018-12-07T14:17:29.467Z,5.60
2018-12-07T14:19:57.360Z,3.13
2018-12-07T14:22:25.155Z,3.73
2018-12-07T14:24:52.855Z,3.33
2018-12-07T14:27:20.586Z,4.03
2018-12-07T14:29:48.237Z,4.57
2018-12-07T14:32:16.762Z,4.50
2018-12-07T14:34:44.439Z,4.27
2018-12-07T14:37:12.115Z,3.37
2018-12-07T14:39:39.898Z,3.67
2018-12-07T14:42:07.655Z,3.30
2018-12-07T14:44:36.165Z,3.60
2018-12-07T14:47:03.867Z,2.97
2018-12-07T14:49:31.561Z,4.13
2018-12-07T14:51:59.191Z,3.70
2018-12-07T14:54:26.709Z,3.50
2018-12-07T14:56:54.270Z,5.23
2018-12-07T14:59:21.893Z,4.40
2018-12-07T15:01:49.711Z,4.67
2018-12-07T15:04:17.370Z,4.97
2018-12-07T15:06:44.942Z,5.63
2018-12-07T15:09:12.474Z,4.47
2018-12-07T15:11:40.063Z,4.40
2018-12-07T15:14:07.751Z,4.43
2018-12-07T15:16:35.586Z,5.00
2018-12-07T15:19:03.370Z,5.10
2018-12-07T15:21:31.004Z,5.00
2018-12-07T15:23:58.773Z,5.17
2018-12-07T15:26:26.319Z,6.07
2018-12-07T15:28:53.988Z,9.17
2018-12-07T15:31:22.637Z,5.63
2018-12-07T15:33:50.630Z,5.57
2018-12-07T15:36:18.137Z,5.30
2018-12-07T15:38:45.798Z,6.30
2018-12-07T15:41:13.381Z,6.30
2018-12-07T15:43:41.265Z,6.20
2018-12-07T15:46:09.044Z,5.77
2018-12-07T15:48:36.709Z,5.87
2018-12-07T15:51:05.101Z,6.10
2018-12-07T15:53:32.867Z,6.20
2018-12-07T15:56:00.496Z,6.27
2018-12-07T15:58:28.275Z,5.77
2018-12-07T16:00:56.159Z,5.77
2018-12-07T16:03:23.737Z,7.13
2018-12-07T16:05:51.622Z,5.50
2018-12-07T16:08:24.884Z,6.53
2018-12-07T16:10:49.308Z,6.03
2018-12-07T16:13:17.364Z,5.87
2018-12-07T16:15:45.329Z,7.73
2018-12-07T16:18:13.158Z,8.00
2018-12-07T16:20:40.814Z,8.10
2018-12-07T16:23:08.481Z,7.37
2018-12-07T16:25:36.419Z,6.77
2018-12-07T16:28:04.317Z,6.83
2018-12-07T16:30:32.018Z,7.17
2018-12-07T16:32:59.659Z,7.97
2018-12-07T16:35:27.299Z,7.20
2018-12-07T16:37:54.838Z,21.33
2018-12-07T16:40:22.602Z,9.47
2018-12-07T16:42:50.230Z,7.80
2018-12-07T16:45:17.935Z,6.80
2018-12-07T16:50:19.961Z,8.23
2018-12-07T16:52:47.700Z,6.30
2018-12-07T16:55:15.393Z,6.87
2018-12-07T16:57:43.178Z,7.53
2018-12-07T17:00:10.954Z,6.60
2018-12-07T17:02:38.774Z,6.70
2018-12-07T17:05:07.787Z,7.30
2018-12-07T17:07:35.709Z,7.00
2018-12-07T17:10:04.562Z,6.07
2018-12-07T17:12:32.131Z,6.77
2018-12-07T17:14:59.766Z,6.60
2018-12-07T17:17:27.624Z,7.03
2018-12-07T17:19:55.184Z,5.90
2018-12-07T17:22:23.080Z,6.50
2018-12-07T17:24:50.860Z,9.77
2018-12-07T17:27:18.450Z,6.90
2018-12-07T17:29:45.988Z,6.10
2018-12-07T17:32:13.453Z,6.67
2018-12-07T17:34:41.474Z,8.20
2018-12-07T17:37:09.156Z,6.50
2018-12-07T17:39:36.728Z,6.60
2018-12-07T17:42:04.256Z,6.30
2018-12-07T17:44:32.071Z,8.00
2018-12-07T17:46:59.875Z,8.67
2018-12-07T17:49:27.693Z,8.43
2018-12-07T17:51:55.321Z,7.93
2018-12-07T17:54:23.097Z,7.33
2018-12-07T17:56:50.758Z,7.17
2018-12-07T17:59:18.547Z,7.47
2018-12-07T18:01:46.105Z,7.03
2018-12-07T18:04:13.585Z,6.87
2018-12-07T18:06:41.313Z,7.70
2018-12-07T18:09:09.289Z,6.63
2018-12-07T18:11:36.914Z,7.40
2018-12-07T18:14:04.761Z,7.57
2018-12-07T18:16:32.615Z,7.97
2018-12-07T18:19:00.252Z,6.77
2018-12-07T18:21:27.912Z,7.77
2018-12-07T18:23:55.516Z,8.70
2018-12-07T18:26:23.076Z,8.10
2018-12-07T18:28:50.569Z,7.77
2018-12-07T18:31:18.168Z,6.90
2018-12-07T18:33:45.943Z,7.43
2018-12-07T18:36:13.586Z,8.10
2018-12-07T18:38:41.277Z,7.87
2018-12-07T18:41:08.866Z,8.13
2018-12-07T18:43:36.497Z,18.50
2018-12-07T18:46:04.182Z,8.43
2018-12-07T18:48:32.101Z,7.10
2018-12-07T18:50:59.802Z,7.47
2018-12-07T18:53:27.564Z,8.40
2018-12-07T18:55:55.280Z,7.33
2018-12-07T18:58:22.959Z,7.50
2018-12-07T19:00:50.626Z,7.07
2018-12-07T19:03:18.288Z,7.63
2018-12-07T19:05:45.967Z,8.10
2018-12-07T19:08:13.873Z,6.63
2018-12-07T19:10:41.788Z,7.43
2018-12-07T19:13:09.512Z,6.33
2018-12-07T19:15:37.262Z,6.77
2018-12-07T19:18:04.965Z,6.47
2018-12-07T19:20:32.859Z,6.77
2018-12-07T19:23:01.455Z,7.43
2018-12-07T19:25:29.067Z,6.83
2018-12-07T19:27:56.652Z,6.77
2018-12-07T19:30:24.320Z,6.50
2018-12-07T19:32:52.040Z,7.07
2018-12-07T19:35:19.545Z,7.03
2018-12-07T19:37:47.124Z,6.83
2018-12-07T19:40:15.035Z,7.17
2018-12-07T19:42:43.065Z,7.23
2018-12-07T19:45:11.083Z,8.87
2018-12-07T19:47:38.887Z,7.80
2018-12-07T19:50:07.353Z,7.50
2018-12-07T19:52:35.060Z,9.37
2018-12-07T19:55:02.824Z,7.93
2018-12-07T19:57:31.090Z,16.33
2018-12-07T19:59:58.758Z,8.13
2018-12-07T20:02:26.308Z,6.50
2018-12-07T20:04:54.009Z,7.50
2018-12-07T20:07:21.853Z,8.17
2018-12-07T20:09:49.445Z,8.20
2018-12-07T20:12:17.191Z,8.27
2018-12-07T20:14:45.071Z,8.13
2018-12-07T20:17:12.842Z,7.47
2018-12-07T20:19:40.616Z,8.33
2018-12-07T20:22:08.449Z,7.57
2018-12-07T20:24:35.962Z,7.20
2018-12-07T20:27:03.760Z,6.73
2018-12-07T20:29:31.638Z,6.27
2018-12-07T20:31:59.566Z,6.20
2018-12-07T20:34:27.287Z,5.90
2018-12-07T20:36:54.925Z,6.63
2018-12-07T20:39:22.613Z,5.93
2018-12-07T20:41:50.412Z,5.97
2018-12-07T20:44:18.071Z,5.50
2018-12-07T20:46:45.558Z,5.10
2018-12-07T20:49:13.661Z,5.33
2018-12-07T20:51:41.227Z,5.03
2018-12-07T20:54:09.014Z,4.10
2018-12-07T20:56:36.947Z,4.47
2018-12-07T20:59:04.704Z,4.50
2018-12-07T21:01:32.702Z,4.20
2018-12-07T21:04:24.910Z,4.73
2018-12-07T21:10:57.085Z,3.40
2018-12-07T21:14:02.068Z,3.50
2018-12-07T21:16:57.344Z,3.10
2018-12-07T21:19:25.321Z,3.50
2018-12-07T21:21:53.301Z,3.03
2018-12-07T21:24:21.136Z,3.50
2018-12-07T21:26:48.808Z,3.50
2018-12-07T21:29:16.727Z,3.90
2018-12-07T21:31:44.456Z,3.00
2018-12-07T21:34:22.637Z,3.27
2018-12-07T21:36:50.491Z,2.97
2018-12-07T21:39:21.134Z,2.70
2018-12-07T21:41:49.508Z,2.80
2018-12-07T21:44:18.230Z,3.50
2018-12-07T21:46:46.176Z,2.67
2018-12-07T21:49:14.030Z,2.83
2018-12-07T21:51:54.702Z,2.80
2018-12-07T21:54:22.432Z,2.83
2018-12-07T21:56:50.187Z,5.23
2018-12-07T21:59:17.892Z,2.70
2018-12-07T22:01:45.674Z,4.17
2018-12-07T22:04:13.515Z,6.40
2018-12-07T22:06:41.471Z,3.37
2018-12-07T22:09:09.208Z,3.10
2018-12-07T22:11:36.825Z,2.93
2018-12-07T22:14:08.663Z,2.23
2018-12-07T22:16:36.305Z,2.90
2018-12-07T22:19:03.853Z,4.20
2018-12-07T22:21:31.322Z,3.83
2018-12-07T22:23:58.920Z,3.30
2018-12-07T22:26:26.687Z,2.57
2018-12-07T22:28:54.180Z,2.80
2018-12-07T22:31:22.055Z,2.60
2018-12-07T22:33:49.770Z,1.80
2018-12-07T22:36:17.414Z,2.10
2018-12-07T22:38:45.307Z,2.30
2018-12-07T22:41:13.299Z,2.60
2018-12-07T22:43:40.992Z,2.10
2018-12-07T22:46:08.771Z,2.00
2018-12-07T22:48:36.484Z,2.60
2018-12-07T22:53:37.818Z,2.67
2018-12-07T22:56:05.322Z,2.93
2018-12-07T22:58:32.809Z,2.10
2018-12-07T23:01:00.307Z,2.37
2018-12-07T23:03:27.802Z,2.27
2018-12-07T23:05:55.326Z,2.20
2018-12-07T23:08:22.798Z,2.00
2018-12-07T23:10:50.277Z,2.20
2018-12-07T23:13:17.761Z,2.20
2018-12-07T23:15:45.252Z,2.00
2018-12-07T23:18:12.752Z,2.10
2018-12-07T23:20:40.244Z,2.10
2018-12-07T23:23:07.711Z,1.83
2018-12-07T23:25:35.200Z,2.20
2018-12-07T23:28:02.788Z,2.20
2018-12-07T23:30:30.270Z,1.97
2018-12-07T23:32:57.735Z,1.93
2018-12-07T23:35:25.302Z,1.77
2018-12-07T23:37:52.780Z,1.70
2018-12-07T23:40:20.299Z,1.70
2018-12-07T23:42:47.798Z,1.80
2018-12-07T23:45:15.388Z,1.30
2018-12-07T23:47:42.864Z,1.17
2018-12-07T23:50:10.552Z,1.30
2018-12-07T23:52:38.090Z,1.70
2018-12-07T23:55:05.579Z,1.40
2018-12-07T23:57:33.054Z,1.60
